Martell, Nebraska
Current Conditions -  °F | °C
As of 9:54 PM on Wednesday 26 Nov 2014 (Local Time) from KLNK Reporting Station
Clear Clear  
Wind Chill:   Ceiling: Unl
Heat Index: 20°   Visibility: 10mi
Dew Point: 14°   Wind: 10mph
Humidity: 78%   Direction: 360°N
Pressure: 30.45"   Gusts: NA
Location:  40.64°N, 96.76°W
Report Text: KLNK 270354Z 36009KT 10SM CLR M07/M10 A3045 RMK AO2 SLP327 T10671100
Loading
Personal Weather Stations






























Interactive Weather Map New forecast layout! Learn more

10-Day Weather Forecast

Advertisements
Track Severe Weather on mobile